Search for airport 
image banner adimage banner adimage banner ad
image banner ad

KSPZ - Silver Springs

Located in Silver Springs, United States

ICAO - SPZ, IATA -

Data provided by Airmate  

General information

Coordinates: N39°24'11" W119°15'4"
Elevation is 4265 feet MSL.
Magnetic variation is 13° East
View others Airports in Nevada

Operational data

Special qualification required
Current time UTC:
Current local time:
Weather at : KRNO - Reno/Tahoe Intl ( 46 km )
METAR: KRNO 092255Z 05009KT 10SM FEW070 SCT250 21/M07 A2994 RMK AO2 SLP106 T02111072
TAF: KRNO 091720Z 0918/1018 VRB04KT P6SM SKC FM092200 36011G20KT P6SM SCT100 FM100500 33015G25KT P6SM SKC FM101300 35008KT P6SM SKC
View NOTAMs / SUP AIP / TFR affecting this airport [VIEW]
Communications frequencies: [VIEW]

Runways:

RWY identifierQFULength (ft)Width (ft)SurfaceLDA (ft)
06600175ASPH
24600175ASPH

Airport contact information

Address: Silver Springs United States

Satellite view of KSPZ